Time;durP1;ratioP1;P1;durP2;ratioP2;P2;SDS_P1;SDS_P2;PMS_P1;PMS_P2;Temp;Humidity;BMP_temperature;BMP_pressure;BME280_temperature;BME280_humidity;BME280_pressure;Samples;Min_cycle;Max_cycle;Signal;HPM_P1;HPM_P2
2024/03/23 00:00:15;;;;;;;26.83;4.15;;;6.40;99.90;;;;;;4955266;29;20127;-81
2024/03/23 00:02:43;;;;;;;23.40;3.97;;;6.40;99.90;;;;;;4954418;29;20047;-82
2024/03/23 00:05:10;;;;;;;23.95;4.32;;;6.90;99.90;;;;;;4942791;29;20057;-82
2024/03/23 00:07:38;;;;;;;23.55;4.13;;;6.30;99.90;;;;;;4966729;29;20078;-81
2024/03/23 00:10:05;;;;;;;24.80;4.47;;;6.40;99.90;;;;;;4943658;29;20055;-82
2024/03/23 00:12:33;;;;;;;23.27;4.00;;;6.40;99.90;;;;;;4961095;29;20480;-81
2024/03/23 00:15:01;;;;;;;22.52;4.00;;;6.90;99.90;;;;;;4942361;29;20102;-81
2024/03/23 00:17:29;;;;;;;26.13;4.28;;;7.30;99.90;;;;;;4960390;28;20636;-81
2024/03/23 00:19:56;;;;;;;21.77;4.50;;;6.40;99.90;;;;;;4931455;29;20138;-81
2024/03/23 00:22:24;;;;;;;20.42;4.97;;;7.00;99.90;;;;;;4950139;29;20078;-81
2024/03/23 00:24:51;;;;;;;22.27;3.90;;;6.30;99.90;;;;;;4968952;28;20505;-82
2024/03/23 00:27:19;;;;;;;30.10;4.82;;;6.80;99.90;;;;;;4947253;29;20497;-81
2024/03/23 00:29:47;;;;;;;22.77;4.38;;;6.40;99.90;;;;;;4955493;29;20059;-81
2024/03/23 00:32:14;;;;;;;21.75;3.80;;;6.30;99.90;;;;;;4975051;29;20111;-81
2024/03/23 00:34:42;;;;;;;26.45;5.53;;;6.50;99.90;;;;;;4965576;29;20071;-81
2024/03/23 00:37:12;;;;;;;20.88;4.00;;;6.30;99.90;;;;;;4909500;29;20082;-81
2024/03/23 00:39:40;;;;;;;27.50;4.65;;;6.30;99.90;;;;;;4958292;29;20075;-82
2024/03/23 00:42:07;;;;;;;20.92;3.85;;;6.20;99.90;;;;;;4964679;29;20122;-81
2024/03/23 00:44:35;;;;;;;20.13;3.22;;;6.20;99.90;;;;;;4973427;29;20043;-81
2024/03/23 00:47:02;;;;;;;19.85;3.75;;;6.40;99.90;;;;;;4946153;28;20130;-81
2024/03/23 00:49:30;;;;;;;21.70;4.30;;;6.20;99.90;;;;;;4946685;29;20061;-81
2024/03/23 00:51:58;;;;;;;26.45;4.30;;;6.20;99.90;;;;;;4924675;28;20104;-81
2024/03/23 00:54:24;;;;;;;22.98;3.78;;;6.20;99.90;;;;;;4959202;28;20566;-81
2024/03/23 00:56:54;;;;;;;29.92;4.53;;;7.20;99.90;;;;;;4961306;29;20119;-81
2024/03/23 00:59:22;;;;;;;24.38;3.83;;;6.20;99.90;;;;;;4950579;29;20501;-81
2024/03/23 01:01:48;;;;;;;26.42;4.88;;;6.30;99.90;;;;;;4960865;29;20040;-81
2024/03/23 01:04:15;;;;;;;22.83;4.22;;;6.10;99.90;;;;;;4957163;29;20050;-81
2024/03/23 01:06:41;;;;;;;19.75;3.97;;;6.10;99.90;;;;;;4957484;29;20425;-81
2024/03/23 01:09:10;;;;;;;31.95;4.53;;;6.10;99.90;;;;;;4962104;28;20051;-81
2024/03/23 01:11:37;;;;;;;29.98;5.60;;;6.10;99.90;;;;;;4971223;29;20083;-81
2024/03/23 01:14:04;;;;;;;35.80;5.60;;;6.00;99.90;;;;;;4949042;29;20067;-81
2024/03/23 01:16:33;;;;;;;35.28;5.10;;;6.00;99.90;;;;;;4973525;29;20091;-81
2024/03/23 01:19:00;;;;;;;19.83;4.55;;;6.00;99.90;;;;;;4951431;28;20043;-81
2024/03/23 01:21:26;;;;;;;26.27;5.25;;;5.90;99.90;;;;;;4958304;29;20393;-81
2024/03/23 01:23:53;;;;;;;24.20;4.75;;;6.60;99.90;;;;;;4966366;28;20102;-81
2024/03/23 01:26:20;;;;;;;27.02;4.55;;;6.30;99.90;;;;;;4981403;29;20098;-81
2024/03/23 01:28:46;;;;;;;16.95;3.70;;;5.80;99.90;;;;;;4965136;28;20046;-81
2024/03/23 01:31:13;;;;;;;24.13;4.38;;;6.50;99.90;;;;;;4960328;29;20400;-81
2024/03/23 01:33:39;;;;;;;24.27;4.25;;;5.80;99.90;;;;;;4959193;29;20046;-81
2024/03/23 01:36:06;;;;;;;20.45;4.15;;;5.70;99.90;;;;;;4949796;29;20486;-81
2024/03/23 01:38:33;;;;;;;26.17;3.80;;;6.20;99.90;;;;;;4940074;28;20065;-81
2024/03/23 01:40:59;;;;;;;28.58;4.53;;;6.50;99.90;;;;;;4955333;29;20512;-81
2024/03/23 01:43:26;;;;;;;25.55;3.83;;;6.00;99.90;;;;;;4964321;28;20121;-81
2024/03/23 01:45:53;;;;;;;31.67;4.68;;;5.80;99.90;;;;;;4956601;29;20057;-81
2024/03/23 01:48:20;;;;;;;21.88;3.72;;;6.10;99.90;;;;;;4948899;28;20039;-81
2024/03/23 01:50:48;;;;;;;24.48;3.85;;;5.60;99.90;;;;;;4957020;29;20488;-81
2024/03/23 01:53:17;;;;;;;25.23;4.30;;;5.50;99.90;;;;;;4956559;29;20050;-81
2024/03/23 01:55:44;;;;;;;25.38;4.53;;;5.40;99.90;;;;;;4964145;28;20068;-81
2024/03/23 01:58:13;;;;;;;15.15;3.08;;;5.50;99.90;;;;;;4966938;29;20039;-81
2024/03/23 02:00:40;;;;;;;22.48;3.95;;;5.40;99.90;;;;;;4956180;29;20053;-81
2024/03/23 02:03:26;;;;;;;23.52;4.43;;;5.40;99.90;;;;;;4957707;29;20039;-81
2024/03/23 02:05:54;;;;;;;;;;;5.30;99.90;;;;;;4956233;28;20086;-81
2024/03/23 02:08:22;;;;;;;20.95;3.92;;;5.30;99.90;;;;;;4966979;29;19966;-81
2024/03/23 02:10:50;;;;;;;19.10;4.20;;;6.30;99.90;;;;;;4947892;29;20039;-81
2024/03/23 02:13:18;;;;;;;19.85;3.33;;;5.20;99.90;;;;;;4956262;29;20042;-81
2024/03/23 02:15:45;;;;;;;26.73;4.03;;;5.20;99.90;;;;;;4944940;29;20552;-81
2024/03/23 02:18:12;;;;;;;22.30;3.92;;;6.00;99.90;;;;;;4955129;29;20110;-81
2024/03/23 02:20:39;;;;;;;19.38;3.90;;;5.70;99.90;;;;;;4959359;29;20536;-81
2024/03/23 02:23:12;;;;;;;22.50;4.13;;;5.70;99.90;;;;;;4956059;29;20408;-81
2024/03/23 02:25:39;;;;;;;29.50;4.68;;;5.10;99.90;;;;;;4980007;28;20046;-81
2024/03/23 02:28:06;;;;;;;20.35;3.47;;;6.10;99.90;;;;;;4949129;29;20036;-81
2024/03/23 02:30:32;;;;;;;18.63;3.80;;;5.10;99.90;;;;;;4958462;29;20039;-81
2024/03/23 02:32:59;;;;;;;22.35;4.28;;;5.10;99.90;;;;;;4957684;28;20039;-81
2024/03/23 02:35:26;;;;;;;25.95;4.28;;;6.10;99.90;;;;;;4960655;28;20113;-81
2024/03/23 02:37:53;;;;;;;24.80;4.38;;;5.20;99.90;;;;;;4953093;29;20130;-81
2024/03/23 02:40:20;;;;;;;23.67;3.90;;;5.00;99.90;;;;;;4961191;28;20038;-81
2024/03/23 02:42:47;;;;;;;24.23;4.03;;;5.00;99.90;;;;;;4970539;28;20042;-81
2024/03/23 02:45:14;;;;;;;23.00;4.53;;;5.00;99.90;;;;;;4975091;29;20632;-81
2024/03/23 02:47:40;;;;;;;30.95;3.92;;;5.00;99.90;;;;;;4963474;29;20050;-81
2024/03/23 02:50:08;;;;;;;23.38;4.28;;;5.40;99.90;;;;;;4968377;28;20035;-82
2024/03/23 02:52:36;;;;;;;22.08;3.83;;;5.00;99.90;;;;;;4965002;29;20405;-81
2024/03/23 02:55:03;;;;;;;18.65;4.03;;;5.00;99.90;;;;;;4966592;29;20422;-81
2024/03/23 02:57:30;;;;;;;16.60;3.22;;;5.00;99.90;;;;;;4968713;28;20042;-81
2024/03/23 02:59:57;;;;;;;22.30;4.10;;;4.90;99.90;;;;;;4961753;29;20506;-81
2024/03/23 03:02:24;;;;;;;22.33;3.42;;;5.70;99.90;;;;;;4959592;29;20049;-81
2024/03/23 03:04:50;;;;;;;22.40;3.58;;;4.90;99.90;;;;;;4953405;28;20051;-81
2024/03/23 03:07:17;;;;;;;23.52;3.67;;;4.90;99.90;;;;;;4963310;29;20058;-81
2024/03/23 03:09:43;;;;;;;18.83;4.07;;;5.50;99.90;;;;;;4942799;29;20043;-81
2024/03/23 03:12:10;;;;;;;17.45;3.75;;;5.20;99.90;;;;;;4955354;29;20047;-81
2024/03/23 03:14:37;;;;;;;21.13;4.15;;;4.90;99.90;;;;;;4945153;29;20051;-81
2024/03/23 03:17:04;;;;;;;25.88;4.45;;;4.90;99.90;;;;;;4960675;29;20659;-81
2024/03/23 03:19:32;;;;;;;24.08;3.88;;;4.90;99.90;;;;;;4952484;29;20079;-81
2024/03/23 03:21:58;;;;;;;11.73;2.78;;;4.90;99.90;;;;;;4945825;29;20464;-81
2024/03/23 03:24:25;;;;;;;22.00;3.30;;;4.90;99.90;;;;;;4955733;29;20043;-81
2024/03/23 03:26:52;;;;;;;17.92;3.50;;;4.90;99.90;;;;;;4955787;29;20118;-81
2024/03/23 03:29:18;;;;;;;26.67;4.43;;;4.90;99.90;;;;;;4969685;28;20066;-81
2024/03/23 03:31:45;;;;;;;28.08;5.25;;;4.90;99.90;;;;;;4967081;28;20038;-81
2024/03/23 03:34:12;;;;;;;15.63;4.03;;;5.00;99.90;;;;;;4958572;28;20399;-81
2024/03/23 03:36:38;;;;;;;16.27;3.90;;;5.40;99.90;;;;;;4982354;28;20043;-81
2024/03/23 03:39:06;;;;;;;22.67;4.05;;;4.80;99.90;;;;;;4965519;29;20043;-81
2024/03/23 03:41:32;;;;;;;25.25;3.45;;;4.80;99.90;;;;;;4966675;28;20404;-81
2024/03/23 03:44:01;;;;;;;18.52;3.70;;;4.80;99.90;;;;;;4964214;29;20051;-81
2024/03/23 03:46:28;;;;;;;22.13;3.67;;;4.90;99.90;;;;;;4968565;28;20043;-81
2024/03/23 03:48:55;;;;;;;23.70;3.83;;;4.80;99.90;;;;;;4952051;29;20099;-81
2024/03/23 03:51:21;;;;;;;16.35;3.65;;;4.80;99.90;;;;;;4964450;29;20043;-81
2024/03/23 03:53:48;;;;;;;19.42;3.88;;;4.70;99.90;;;;;;4952063;28;20042;-81
2024/03/23 03:56:15;;;;;;;12.82;3.45;;;4.70;99.90;;;;;;4964493;28;20031;-81
2024/03/23 03:58:41;;;;;;;13.60;3.35;;;4.70;99.90;;;;;;4955151;29;20412;-81
2024/03/23 04:01:08;;;;;;;20.63;3.35;;;4.70;99.90;;;;;;4944765;28;20043;-81
2024/03/23 04:03:35;;;;;;;28.65;4.00;;;4.70;99.90;;;;;;4955218;29;20091;-81
2024/03/23 04:06:03;;;;;;;16.05;3.30;;;4.70;99.90;;;;;;4949778;28;20158;-81
2024/03/23 04:08:29;;;;;;;18.75;3.42;;;4.60;99.90;;;;;;4956717;29;20043;-81
2024/03/23 04:10:56;;;;;;;13.40;3.13;;;4.60;99.90;;;;;;4959726;28;20038;-81
2024/03/23 04:13:22;;;;;;;14.20;3.45;;;4.60;99.90;;;;;;4956461;29;20098;-81
2024/03/23 04:15:53;;;;;;;16.30;3.22;;;4.60;99.90;;;;;;4956330;29;20155;-81
2024/03/23 04:18:20;;;;;;;11.32;2.78;;;4.60;99.90;;;;;;4962525;29;20444;-82
2024/03/23 04:20:47;;;;;;;17.83;2.88;;;4.50;99.90;;;;;;4946087;29;20043;-81
2024/03/23 04:23:13;;;;;;;15.15;3.35;;;4.50;99.90;;;;;;4978320;29;20122;-81
2024/03/23 04:25:40;;;;;;;13.75;2.92;;;4.50;99.90;;;;;;4957998;29;20047;-81
2024/03/23 04:28:06;;;;;;;17.55;3.38;;;4.70;99.90;;;;;;4958358;29;20050;-81
2024/03/23 04:30:33;;;;;;;15.40;3.45;;;4.40;99.90;;;;;;4977354;29;20063;-81
2024/03/23 04:33:00;;;;;;;20.58;4.20;;;5.30;99.90;;;;;;4966804;28;20094;-81
2024/03/23 04:35:27;;;;;;;13.80;3.90;;;4.70;99.90;;;;;;4965888;28;20043;-81
2024/03/23 04:37:55;;;;;;;22.20;4.18;;;4.60;99.90;;;;;;4958151;29;20058;-81
2024/03/23 04:40:22;;;;;;;15.18;3.65;;;4.30;99.90;;;;;;4964220;28;20151;-81
2024/03/23 04:42:49;;;;;;;22.83;3.88;;;5.30;99.90;;;;;;4973906;29;20125;-81
2024/03/23 04:45:15;;;;;;;17.88;3.20;;;4.30;99.90;;;;;;4957968;29;20082;-81
2024/03/23 04:47:42;;;;;;;17.90;2.92;;;4.30;99.90;;;;;;4957506;29;20265;-81
2024/03/23 04:50:12;;;;;;;24.63;4.40;;;4.20;99.90;;;;;;4956665;28;20046;-81
2024/03/23 04:52:39;;;;;;;14.13;3.33;;;5.20;99.90;;;;;;4964832;28;20039;-81
2024/03/23 04:55:06;;;;;;;15.00;3.20;;;4.20;99.90;;;;;;4956098;29;20040;-81
2024/03/23 04:57:33;;;;;;;20.98;3.53;;;4.20;99.90;;;;;;4969789;29;20047;-81
2024/03/23 04:59:59;;;;;;;21.95;3.35;;;4.10;99.90;;;;;;4953165;29;20039;-81
2024/03/23 05:02:27;;;;;;;19.98;3.20;;;4.10;99.90;;;;;;4958543;29;20035;-81
2024/03/23 05:04:54;;;;;;;20.30;3.78;;;4.10;99.90;;;;;;4963520;29;20572;-81
2024/03/23 05:07:20;;;;;;;24.65;3.67;;;4.10;99.90;;;;;;4949787;29;20051;-81
2024/03/23 05:09:48;;;;;;;18.00;3.63;;;4.10;99.90;;;;;;4985279;28;20043;-81
2024/03/23 05:12:15;;;;;;;16.70;3.35;;;4.10;99.90;;;;;;4973303;29;20445;-81
2024/03/23 05:14:42;;;;;;;20.58;3.65;;;4.20;99.90;;;;;;4973111;28;20039;-81
2024/03/23 05:17:08;;;;;;;16.45;3.58;;;4.50;99.90;;;;;;4953013;29;20514;-81
2024/03/23 05:19:35;;;;;;;26.08;3.47;;;4.10;99.90;;;;;;4972602;29;20051;-81
2024/03/23 05:22:02;;;;;;;16.30;2.92;;;4.50;99.90;;;;;;4942775;29;20135;-81
2024/03/23 05:24:28;;;;;;;17.85;3.00;;;4.00;99.90;;;;;;4943637;28;20043;-81
2024/03/23 05:26:56;;;;;;;17.73;3.47;;;4.00;99.90;;;;;;4954240;28;20139;-81
2024/03/23 05:29:22;;;;;;;18.58;2.92;;;4.30;99.90;;;;;;4951126;29;20071;-81
2024/03/23 05:31:51;;;;;;;13.25;3.13;;;4.00;99.90;;;;;;4964058;29;20070;-81
2024/03/23 05:34:18;;;;;;;20.23;3.30;;;4.00;99.90;;;;;;4967152;29;20043;-81
2024/03/23 05:36:45;;;;;;;17.30;3.45;;;3.90;99.90;;;;;;4949751;29;20857;-81
2024/03/23 05:39:11;;;;;;;16.17;3.35;;;4.20;99.90;;;;;;4942038;29;20528;-81
2024/03/23 05:41:38;;;;;;;12.35;3.08;;;3.90;99.90;;;;;;4945975;29;20045;-81
2024/03/23 05:44:05;;;;;;;20.17;3.45;;;3.90;99.90;;;;;;4946366;29;20417;-81
2024/03/23 05:46:32;;;;;;;15.05;3.30;;;3.90;99.90;;;;;;4943720;29;20563;-80
2024/03/23 05:49:02;;;;;;;21.35;3.28;;;3.90;99.90;;;;;;4942705;28;20118;-81
2024/03/23 05:51:29;;;;;;;25.13;3.70;;;4.00;99.90;;;;;;4941402;29;20500;-81
2024/03/23 05:53:55;;;;;;;15.68;3.42;;;3.90;99.90;;;;;;4944000;29;20043;-81
2024/03/23 05:56:22;;;;;;;15.88;3.40;;;3.90;99.90;;;;;;4965507;29;20065;-81
2024/03/23 05:58:49;;;;;;;14.20;2.65;;;4.00;99.90;;;;;;4956898;29;20125;-81
2024/03/23 06:01:15;;;;;;;15.82;3.25;;;4.40;99.90;;;;;;4960127;29;20042;-81
2024/03/23 06:03:43;;;;;;;19.30;3.38;;;4.10;99.90;;;;;;4954654;29;20039;-81
2024/03/23 06:06:12;;;;;;;19.95;3.30;;;4.20;99.90;;;;;;4939544;29;20687;-81
2024/03/23 06:08:39;;;;;;;19.83;3.10;;;4.10;99.90;;;;;;4955749;29;20126;-81
2024/03/23 06:11:08;;;;;;;16.35;3.22;;;4.20;99.90;;;;;;4956148;29;20127;-81
2024/03/23 06:13:35;;;;;;;13.48;3.58;;;4.30;99.90;;;;;;4956423;29;20035;-81
2024/03/23 06:16:02;;;;;;;21.55;3.38;;;4.30;99.90;;;;;;4943497;29;20040;-81
2024/03/23 06:18:28;;;;;;;18.50;2.88;;;4.20;99.90;;;;;;4956220;29;20035;-81
2024/03/23 06:20:55;;;;;;;13.18;2.92;;;4.30;99.90;;;;;;4956160;29;20051;-81
2024/03/23 06:23:22;;;;;;;18.90;3.67;;;4.30;99.90;;;;;;4971980;29;20043;-81
2024/03/23 06:25:48;;;;;;;9.90;2.67;;;4.30;99.90;;;;;;4979958;28;20047;-81
2024/03/23 06:28:15;;;;;;;15.48;3.05;;;5.20;99.90;;;;;;4962094;29;20035;-81
2024/03/23 06:30:41;;;;;;;13.40;3.38;;;4.90;99.90;;;;;;4957715;28;20078;-81
2024/03/23 06:33:08;;;;;;;17.92;3.08;;;4.40;99.90;;;;;;4971928;28;20492;-81
2024/03/23 06:35:35;;;;;;;16.98;3.03;;;4.40;99.90;;;;;;4965866;28;20047;-81
2024/03/23 06:38:02;;;;;;;17.40;2.88;;;4.40;99.90;;;;;;4962757;28;20054;-81
2024/03/23 06:40:28;;;;;;;14.02;2.67;;;4.50;99.90;;;;;;4967236;29;20047;-81
2024/03/23 06:42:55;;;;;;;11.98;2.47;;;5.60;99.90;;;;;;4952461;29;20047;-81
2024/03/23 06:45:23;;;;;;;14.23;2.40;;;5.30;99.90;;;;;;4959819;29;20051;-81
2024/03/23 06:47:50;;;;;;;19.13;3.17;;;5.00;99.90;;;;;;4959400;28;20412;-81
2024/03/23 06:50:17;;;;;;;10.32;2.17;;;5.10;99.90;;;;;;4986143;28;20535;-81
2024/03/23 06:52:43;;;;;;;8.32;1.73;;;5.40;99.90;;;;;;4981416;28;20129;-81
2024/03/23 06:55:10;;;;;;;10.52;1.42;;;5.50;99.90;;;;;;4957224;29;20175;-81
2024/03/23 06:57:37;;;;;;;6.97;1.50;;;5.60;99.90;;;;;;4944486;29;20126;-81
2024/03/23 07:00:04;;;;;;;7.53;1.55;;;5.60;99.90;;;;;;4957913;28;20027;-81
2024/03/23 07:02:31;;;;;;;5.55;1.02;;;5.60;99.90;;;;;;4966686;28;20411;-81
2024/03/23 07:04:58;;;;;;;3.83;0.80;;;5.60;99.90;;;;;;4959310;29;20051;-81
2024/03/23 07:07:24;;;;;;;6.13;1.00;;;5.50;99.90;;;;;;4977747;29;20423;-81
2024/03/23 07:09:52;;;;;;;6.45;0.80;;;5.40;99.90;;;;;;4955617;29;20043;-81
2024/03/23 07:12:19;;;;;;;5.70;1.10;;;5.50;99.90;;;;;;4962648;28;20027;-81
2024/03/23 07:14:46;;;;;;;5.53;1.17;;;5.40;99.90;;;;;;4961782;29;20404;-81
2024/03/23 07:17:15;;;;;;;3.33;0.98;;;5.50;99.90;;;;;;4963017;28;20039;-81
2024/03/23 07:19:42;;;;;;;7.03;1.10;;;6.30;99.90;;;;;;4968090;29;20035;-81
2024/03/23 07:22:10;;;;;;;4.85;1.00;;;5.90;99.90;;;;;;4956568;28;20043;-81
2024/03/23 07:24:39;;;;;;;5.65;1.20;;;5.60;99.90;;;;;;4968448;29;20039;-81
2024/03/23 07:27:09;;;;;;;4.75;1.40;;;5.70;99.90;;;;;;4943571;29;20490;-81
2024/03/23 07:29:36;;;;;;;7.95;1.45;;;5.70;99.90;;;;;;4946022;29;20118;-81
2024/03/23 07:32:03;;;;;;;3.75;1.23;;;5.80;99.90;;;;;;4944204;29;20127;-81
2024/03/23 07:34:30;;;;;;;8.52;1.48;;;5.80;99.90;;;;;;4956489;28;20039;-81
2024/03/23 07:36:56;;;;;;;8.20;1.95;;;5.80;99.90;;;;;;4954757;29;20118;-81
2024/03/23 07:39:23;;;;;;;10.68;1.77;;;6.60;99.90;;;;;;4935393;29;20504;-81
2024/03/23 07:41:50;;;;;;;11.35;1.63;;;6.50;99.90;;;;;;4937838;29;20129;-81
2024/03/23 07:44:16;;;;;;;10.88;2.17;;;6.60;99.90;;;;;;4949620;29;20056;-81
2024/03/23 07:46:43;;;;;;;9.63;1.90;;;6.60;99.90;;;;;;4954693;29;20078;-81
2024/03/23 07:49:09;;;;;;;6.70;2.00;;;6.30;99.90;;;;;;4954695;29;20452;-82
2024/03/23 07:51:40;;;;;;;8.43;1.90;;;6.30;99.90;;;;;;4958682;28;20637;-82
2024/03/23 07:54:07;;;;;;;10.52;1.67;;;6.70;99.90;;;;;;4959446;29;20047;-82
2024/03/23 07:56:33;;;;;;;8.77;2.03;;;6.50;99.90;;;;;;4952148;28;20035;-82
2024/03/23 07:59:00;;;;;;;9.60;1.90;;;6.60;99.90;;;;;;4957739;28;20046;-82
2024/03/23 08:01:27;;;;;;;8.65;1.83;;;6.70;99.90;;;;;;4977984;29;20456;-82
2024/03/23 08:03:53;;;;;;;7.47;1.63;;;6.70;99.90;;;;;;4968379;28;20034;-82
2024/03/23 08:06:22;;;;;;;10.48;1.90;;;6.80;99.90;;;;;;4987226;28;20122;-81
2024/03/23 08:08:59;;;;;;;6.32;1.65;;;6.90;99.90;;;;;;4958080;29;20481;-82
2024/03/23 08:11:30;;;;;;;7.30;1.50;;;6.80;99.90;;;;;;4956683;29;20038;-82
2024/03/23 08:13:57;;;;;;;5.70;1.38;;;6.90;99.90;;;;;;4961173;29;20047;-82
2024/03/23 08:16:24;;;;;;;7.25;1.35;;;6.90;99.90;;;;;;4958629;29;20102;-82
2024/03/23 08:18:51;;;;;;;8.07;2.15;;;7.90;99.90;;;;;;4949657;29;20082;-81
2024/03/23 08:21:18;;;;;;;11.48;1.90;;;7.10;99.90;;;;;;4960065;28;20047;-82
2024/03/23 08:23:45;;;;;;;8.50;2.15;;;7.20;99.90;;;;;;4970429;29;20133;-81
2024/03/23 08:26:17;;;;;;;10.88;1.60;;;7.30;99.90;;;;;;4944230;29;20131;-82
2024/03/23 08:28:44;;;;;;;7.05;1.42;;;7.30;99.90;;;;;;4946384;29;20489;-82
2024/03/23 08:31:12;;;;;;;9.10;1.48;;;7.40;99.90;;;;;;4949293;28;20050;-81
2024/03/23 08:33:39;;;;;;;6.70;1.58;;;7.60;99.90;;;;;;4962610;29;20490;-81
2024/03/23 08:36:07;;;;;;;7.72;1.50;;;7.80;99.90;;;;;;4950188;29;20031;-82
2024/03/23 08:38:35;;;;;;;7.95;1.67;;;8.40;99.90;;;;;;4958976;29;20036;-82
2024/03/23 08:41:09;;;;;;;7.97;1.58;;;8.70;99.90;;;;;;4966400;28;20039;-82
2024/03/23 08:43:40;;;;;;;9.45;1.65;;;7.90;99.90;;;;;;4953715;29;20128;-86
2024/03/23 08:46:09;;;;;;;7.68;1.58;;;7.90;99.90;;;;;;4982818;29;20094;-81
2024/03/23 08:48:43;;;;;;;7.72;1.67;;;8.20;99.90;;;;;;4947739;29;20450;-82
2024/03/23 08:51:14;;;;;;;8.25;1.98;;;7.80;99.90;;;;;;4968802;29;20070;-81
2024/03/23 08:53:41;;;;;;;10.23;2.00;;;7.70;99.90;;;;;;4957771;29;20412;-81
2024/03/23 08:56:08;;;;;;;6.72;1.50;;;7.70;99.90;;;;;;4958155;28;20082;-81
2024/03/23 08:58:36;;;;;;;6.35;1.70;;;8.10;99.90;;;;;;4947204;28;20417;-81
2024/03/23 09:01:08;;;;;;;13.90;1.92;;;8.00;99.90;;;;;;4966358;28;20043;-81
2024/03/23 09:03:35;;;;;;;9.48;2.00;;;7.60;99.90;;;;;;4948208;29;20039;-81
2024/03/23 09:06:13;;;;;;;6.28;1.52;;;7.60;99.90;;;;;;4945095;29;20138;-81
2024/03/23 09:08:40;;;;;;;9.38;1.80;;;7.80;99.90;;;;;;4953802;29;20047;-80
2024/03/23 09:11:09;;;;;;;6.25;1.55;;;7.90;99.90;;;;;;4974329;29;20043;-81
2024/03/23 09:13:38;;;;;;;7.60;1.50;;;8.10;99.90;;;;;;4960374;28;20042;-81
2024/03/23 09:16:06;;;;;;;7.03;1.55;;;8.30;99.90;;;;;;4961327;29;20046;-81
2024/03/23 09:18:35;;;;;;;6.68;1.80;;;7.90;99.90;;;;;;4942759;29;20138;-81
2024/03/23 09:21:02;;;;;;;8.07;1.83;;;8.00;99.90;;;;;;4954347;29;20039;-81
2024/03/23 09:23:29;;;;;;;6.22;1.63;;;8.00;99.90;;;;;;4963474;28;20031;-81
2024/03/23 09:25:56;;;;;;;5.93;1.40;;;8.10;99.90;;;;;;4964920;28;20170;-80
2024/03/23 09:28:23;;;;;;;10.02;1.80;;;8.30;99.90;;;;;;4982159;29;20138;-81
2024/03/23 09:30:49;;;;;;;9.82;2.08;;;8.50;99.90;;;;;;4945049;29;20043;-81
2024/03/23 09:33:17;;;;;;;9.30;1.88;;;8.80;99.90;;;;;;4972827;29;20489;-81
2024/03/23 09:35:47;;;;;;;9.82;1.98;;;8.70;99.90;;;;;;4957828;28;20039;-80
2024/03/23 09:38:13;;;;;;;7.53;1.83;;;8.90;99.90;;;;;;4964307;28;20043;-81
2024/03/23 09:40:42;;;;;;;7.15;1.88;;;9.00;99.90;;;;;;4958289;29;20425;-81
2024/03/23 09:43:09;;;;;;;6.50;2.03;;;9.10;99.90;;;;;;4961602;29;20065;-81
2024/03/23 09:45:40;;;;;;;9.50;2.38;;;9.30;99.90;;;;;;4957306;29;20091;-81
2024/03/23 09:48:09;;;;;;;9.25;2.17;;;9.60;99.90;;;;;;4957489;28;20035;-81
2024/03/23 09:50:40;;;;;;;12.50;2.03;;;9.30;99.90;;;;;;4947111;29;20039;-81
2024/03/23 09:53:08;;;;;;;13.30;2.00;;;9.20;99.90;;;;;;4968445;29;20032;-81
2024/03/23 09:55:36;;;;;;;9.25;1.98;;;9.80;99.90;;;;;;4975183;29;20103;-80
2024/03/23 09:58:04;;;;;;;10.40;2.67;;;9.20;99.90;;;;;;4955752;29;20090;-81
2024/03/23 10:00:35;;;;;;;9.43;2.10;;;9.20;99.90;;;;;;4956378;29;20038;-82
2024/03/23 10:03:02;;;;;;;11.55;1.90;;;9.00;99.90;;;;;;4950443;29;20462;-82
2024/03/23 10:05:31;;;;;;;12.65;2.22;;;9.00;99.90;;;;;;4944658;29;20135;-82
2024/03/23 10:07:58;;;;;;;12.55;2.45;;;9.10;99.90;;;;;;4953996;29;20492;-81
2024/03/23 10:10:27;;;;;;;6.85;1.88;;;9.00;99.90;;;;;;4963364;28;20126;-81
2024/03/23 10:12:54;;;;;;;9.48;2.03;;;9.00;99.90;;;;;;4958868;28;20039;-81
2024/03/23 10:15:23;;;;;;;8.82;1.80;;;8.90;99.90;;;;;;4957100;29;20126;-81
2024/03/23 10:17:50;;;;;;;6.72;1.60;;;9.00;99.90;;;;;;4950707;29;20512;-82
2024/03/23 10:20:24;;;;;;;4.18;1.15;;;8.90;99.90;;;;;;4950667;29;20101;-81
2024/03/23 10:22:52;;;;;;;1.40;0.85;;;8.50;99.90;;;;;;4957746;28;20039;-82
2024/03/23 10:25:22;;;;;;;3.42;0.80;;;7.90;99.90;;;;;;4965233;28;20047;-81
2024/03/23 10:28:00;;;;;;;4.53;0.60;;;7.50;99.90;;;;;;4956046;29;20404;-81
2024/03/23 10:30:27;;;;;;;5.10;2.60;;;7.30;99.90;;;;;;4954484;29;20126;-81
2024/03/23 10:33:10;;;;;;;2.85;0.77;;;8.20;99.90;;;;;;4949167;29;20098;-81
2024/03/23 10:35:38;;;;;;;3.58;0.90;;;7.00;99.90;;;;;;4969580;28;20027;-81
2024/03/23 10:38:06;;;;;;;5.93;1.58;;;6.90;99.90;;;;;;4959977;29;20385;-81
2024/03/23 10:40:36;;;;;;;5.60;1.67;;;7.80;99.90;;;;;;4958327;29;20046;-81
2024/03/23 10:43:04;;;;;;;8.40;1.60;;;7.70;99.90;;;;;;4952477;29;20756;-81
2024/03/23 10:45:31;;;;;;;6.40;1.35;;;6.60;99.90;;;;;;4954963;28;20435;-82
2024/03/23 10:47:58;;;;;;;9.07;1.80;;;6.50;99.90;;;;;;4957654;29;20050;-81
2024/03/23 10:50:25;;;;;;;5.63;1.73;;;6.80;99.90;;;;;;4949232;29;20503;-82
2024/03/23 10:52:55;;;;;;;12.23;2.22;;;7.10;99.90;;;;;;4959263;29;20464;-82
2024/03/23 10:55:23;;;;;;;9.25;1.73;;;7.20;99.90;;;;;;4974628;28;20511;-81
2024/03/23 10:57:58;;;;;;;7.63;1.65;;;8.00;99.90;;;;;;4959554;28;20032;-81
2024/03/23 11:00:25;;;;;;;9.98;2.08;;;7.50;99.90;;;;;;4965636;29;20036;-81
2024/03/23 11:02:52;;;;;;;9.55;1.70;;;8.80;99.90;;;;;;4961527;28;20034;-81
2024/03/23 11:05:31;;;;;;;11.55;2.53;;;8.80;99.90;;;;;;4964443;29;20047;-81
2024/03/23 11:07:58;;;;;;;25.58;2.95;;;8.20;99.90;;;;;;4959172;29;20552;-81
2024/03/23 11:10:29;;;;;;;9.50;1.80;;;8.30;99.90;;;;;;4942935;29;20039;-81
2024/03/23 11:13:22;;;;;;;6.82;1.83;;;8.40;99.90;;;;;;4963035;29;20036;-82
2024/03/23 11:15:49;;;;;;;6.82;1.52;;;8.50;99.90;;;;;;4954054;28;20119;-81
2024/03/23 11:18:21;;;;;;;6.15;1.25;;;8.60;99.90;;;;;;4947837;28;20122;-81
2024/03/23 11:20:47;;;;;;;8.80;1.90;;;9.30;99.90;;;;;;4964627;28;20039;-81
2024/03/23 11:23:29;;;;;;;8.13;1.90;;;9.70;99.90;;;;;;4958568;29;20078;-81
2024/03/23 11:25:56;;;;;;;11.52;1.98;;;8.80;99.90;;;;;;4963692;29;20052;-81
2024/03/23 11:28:22;;;;;;;8.90;1.90;;;9.20;99.90;;;;;;4962837;29;20156;-81
2024/03/23 11:30:49;;;;;;;7.13;1.10;;;8.70;99.90;;;;;;4959123;29;20039;-81
2024/03/23 11:33:16;;;;;;;4.03;1.20;;;7.90;99.90;;;;;;4962983;29;20544;-80
2024/03/23 11:35:42;;;;;;;5.57;1.27;;;7.50;99.90;;;;;;4958932;29;20073;-80
2024/03/23 11:38:11;;;;;;;3.72;0.80;;;6.50;99.90;;;;;;4962570;29;20046;-81
2024/03/23 11:40:42;;;;;;;5.78;1.38;;;6.10;99.90;;;;;;4963910;29;20054;-80
2024/03/23 11:43:13;;;;;;;7.13;1.70;;;5.80;99.90;;;;;;4955564;29;20513;-80
2024/03/23 11:45:47;;;;;;;9.38;1.55;;;5.80;99.90;;;;;;4959468;28;20194;-80
2024/03/23 11:48:17;;;;;;;6.55;1.42;;;5.70;99.90;;;;;;4956055;29;20039;-81
2024/03/23 11:50:46;;;;;;;5.65;1.85;;;5.80;99.90;;;;;;4960200;29;20514;-81
2024/03/23 11:53:16;;;;;;;6.68;1.48;;;5.80;99.90;;;;;;4954618;29;20031;-81
2024/03/23 11:55:57;;;;;;;6.93;1.40;;;6.20;99.90;;;;;;4958755;29;20047;-81
2024/03/23 11:58:25;;;;;;;5.70;1.38;;;6.20;99.90;;;;;;4955702;29;20052;-81
2024/03/23 12:00:59;;;;;;;7.85;1.35;;;6.40;99.90;;;;;;4956481;29;20043;-81
2024/03/23 12:03:30;;;;;;;9.32;1.60;;;6.70;99.90;;;;;;4957814;29;20050;-81
2024/03/23 12:06:00;;;;;;;12.05;1.50;;;7.20;99.90;;;;;;4951398;29;20187;-81
2024/03/23 12:08:34;;;;;;;6.07;1.60;;;7.70;99.90;;;;;;4953608;29;20074;-81
2024/03/23 12:11:13;;;;;;;8.50;1.52;;;7.30;99.90;;;;;;4951160;29;20425;-81
2024/03/23 12:13:44;;;;;;;4.68;1.20;;;7.90;99.90;;;;;;4950630;29;20043;-81
2024/03/23 12:16:11;;;;;;;4.97;1.00;;;7.50;99.90;;;;;;4962046;29;20110;-81
2024/03/23 12:18:40;;;;;;;9.45;2.13;;;7.60;99.90;;;;;;4946652;29;20564;-81
2024/03/23 12:21:07;;;;;;;7.63;1.60;;;8.00;99.90;;;;;;4944416;29;20127;-81
2024/03/23 12:23:35;;;;;;;7.40;1.50;;;7.90;99.90;;;;;;4971083;29;20075;-81
2024/03/23 12:26:02;;;;;;;7.75;1.42;;;7.80;99.90;;;;;;4947318;29;20560;-82
2024/03/23 12:28:28;;;;;;;6.95;1.45;;;8.00;99.90;;;;;;4951748;29;20106;-82
2024/03/23 12:30:55;;;;;;;7.18;1.55;;;8.10;99.90;;;;;;4959658;29;20040;-82
2024/03/23 12:33:22;;;;;;;7.07;1.30;;;8.10;99.90;;;;;;4945783;29;20047;-81
2024/03/23 12:35:50;;;;;;;6.60;1.10;;;7.80;99.90;;;;;;4955315;29;20152;-81
2024/03/23 12:38:17;;;;;;;4.43;1.00;;;7.60;99.90;;;;;;4972078;28;20048;-81
2024/03/23 12:40:48;;;;;;;3.53;0.95;;;7.50;99.90;;;;;;4971814;29;20052;-81
2024/03/23 12:43:15;;;;;;;8.82;1.10;;;7.40;99.90;;;;;;4954626;28;20411;-81
2024/03/23 12:45:45;;;;;;;8.43;1.20;;;7.90;99.90;;;;;;4958830;29;20122;-81
2024/03/23 12:48:12;;;;;;;5.57;1.27;;;7.90;99.90;;;;;;4965563;28;20121;-81
2024/03/23 12:50:39;;;;;;;8.55;1.63;;;7.30;99.90;;;;;;4954464;29;20115;-81
2024/03/23 12:53:05;;;;;;;5.15;1.25;;;7.20;99.90;;;;;;4948877;29;20036;-82